Weather at Prince George's Equestrian Center Heliport

Public forecast

Using degrees Fahrenheit for public forecast. Weather courtesy of forecast.io.

Closest aviation weather report (METAR) to Prince George's Equestrian Center Heliport

Closest report is Joint Base Andrews, 5.7 nm (10.5 km) W.

2024/05/19 18:55 (retrieved 1 hour ago)

KADW 191855Z 07005KT 10SM FEW 100 SCT180 SCT200 21/16 A2997

Closest aviation forecast (TAF) to Prince George's Equestrian Center Heliport

Forecast is more than 6 hours old.

Closest forecast is Joint Base Andrews, 5.7 nm (10.5 km) W.

2024/05/19 13:00 Ammendment (retrieved 7 hours ago)

TAF AMD KADW 191300Z 1913/2015 03003KT 8000 BR BKN007 OVC015 QNH2994INS TEMPO 1913/1915 BKN010 OVC035 BECMG 1914/1915 02003KT 9999 NSW SCT008 BKN020 QNH2998INS BECMG 1916/1917 04003KT 9999 SCT020 BKN050 QNH2995INS BECMG 1918/1919 04003KT 9999 SCT040 QNH2994INS BECMG 1923/1924 10006KT 9999 SCT030 QNH2995INS BECMG 2003/2004 16006KT 9000 BR SCT008 BKN030 QNH3000INS BECMG 2008/2009 VRB03KT 6000 BR BKN015 OVC040 QNH3001INS BECMG 2013/2014 18003KT 9999 NSW BKN020 OVC040 QNH3007INS TX24/1921Z TN15/2009Z